<?xml version="1.0" encoding="UTF-8" standalone="no" ?>
<gpx xmlns="http://www.topografix.com/GPX/1/1" xmlns:xsi="http://www.w3.org/2001/XMLSchema-instance" xsi:schemaLocation="http://www.topografix.com/GPX/1/1 http://www.topografix.com/GPX/1/1/gpx.xsd" version="1.1" creator="VisuGPX - https://www.visugpx.com">
  <metadata>
    <name>13732976-boupere rs2</name>
  </metadata>
  <trk>
    <name><![CDATA[13732976-boupere rs2]]></name>
    <trkseg>
      <trkpt lat="46.79478" lon="-0.92893">
        <ele>133</ele>
        <time>2021-09-21T09:55:22Z</time>
      </trkpt>
      <trkpt lat="46.79451" lon="-0.92981">
        <ele>134</ele>
        <time>2021-09-21T09:56:15Z</time>
      </trkpt>
      <trkpt lat="46.79444" lon="-0.9303">
        <ele>135</ele>
        <time>2021-09-21T09:56:42Z</time>
      </trkpt>
      <trkpt lat="46.79372" lon="-0.93048">
        <ele>132</ele>
        <time>2021-09-21T09:57:41Z</time>
      </trkpt>
      <trkpt lat="46.79266" lon="-0.93178">
        <ele>136</ele>
        <time>2021-09-21T09:59:32Z</time>
      </trkpt>
      <trkpt lat="46.79212" lon="-0.93294">
        <ele>136</ele>
        <time>2021-09-21T10:00:49Z</time>
      </trkpt>
      <trkpt lat="46.7917" lon="-0.93333">
        <ele>135</ele>
        <time>2021-09-21T10:01:28Z</time>
      </trkpt>
      <trkpt lat="46.79162" lon="-0.93379">
        <ele>135</ele>
        <time>2021-09-21T10:01:54Z</time>
      </trkpt>
      <trkpt lat="46.79143" lon="-0.93394">
        <ele>134</ele>
        <time>2021-09-21T10:02:12Z</time>
      </trkpt>
      <trkpt lat="46.79231" lon="-0.93682">
        <ele>132</ele>
        <time>2021-09-21T10:05:05Z</time>
      </trkpt>
      <trkpt lat="46.79056" lon="-0.94001">
        <ele>130</ele>
        <time>2021-09-21T10:08:49Z</time>
      </trkpt>
      <trkpt lat="46.78857" lon="-0.94207">
        <ele>123</ele>
        <time>2021-09-21T10:12:04Z</time>
      </trkpt>
      <trkpt lat="46.78782" lon="-0.94244">
        <ele>124</ele>
        <time>2021-09-21T10:13:07Z</time>
      </trkpt>
      <trkpt lat="46.78672" lon="-0.94447">
        <ele>121</ele>
        <time>2021-09-21T10:15:29Z</time>
      </trkpt>
      <trkpt lat="46.78568" lon="-0.94714">
        <ele>120</ele>
        <time>2021-09-21T10:18:18Z</time>
      </trkpt>
      <trkpt lat="46.78507" lon="-0.94875">
        <ele>120</ele>
        <time>2021-09-21T10:19:59Z</time>
      </trkpt>
      <trkpt lat="46.78414" lon="-0.9519">
        <ele>122</ele>
        <time>2021-09-21T10:23:07Z</time>
      </trkpt>
      <trkpt lat="46.78397" lon="-0.95233">
        <ele>123</ele>
        <time>2021-09-21T10:23:34Z</time>
      </trkpt>
      <trkpt lat="46.78491" lon="-0.95375">
        <ele>126</ele>
        <time>2021-09-21T10:25:22Z</time>
      </trkpt>
      <trkpt lat="46.78512" lon="-0.95482">
        <ele>126</ele>
        <time>2021-09-21T10:26:23Z</time>
      </trkpt>
      <trkpt lat="46.78543" lon="-0.95561">
        <ele>125</ele>
        <time>2021-09-21T10:27:13Z</time>
      </trkpt>
      <trkpt lat="46.78584" lon="-0.95652">
        <ele>122</ele>
        <time>2021-09-21T10:28:13Z</time>
      </trkpt>
      <trkpt lat="46.78312" lon="-0.9614">
        <ele>116</ele>
        <time>2021-09-21T10:33:58Z</time>
      </trkpt>
      <trkpt lat="46.78268" lon="-0.96137">
        <ele>115</ele>
        <time>2021-09-21T10:34:33Z</time>
      </trkpt>
      <trkpt lat="46.78156" lon="-0.96098">
        <ele>115</ele>
        <time>2021-09-21T10:36:05Z</time>
      </trkpt>
      <trkpt lat="46.78077" lon="-0.96101">
        <ele>116</ele>
        <time>2021-09-21T10:37:08Z</time>
      </trkpt>
      <trkpt lat="46.77959" lon="-0.96082">
        <ele>118</ele>
        <time>2021-09-21T10:38:44Z</time>
      </trkpt>
      <trkpt lat="46.7789" lon="-0.96098">
        <ele>121</ele>
        <time>2021-09-21T10:39:39Z</time>
      </trkpt>
      <trkpt lat="46.77772" lon="-0.96113">
        <ele>125</ele>
        <time>2021-09-21T10:41:14Z</time>
      </trkpt>
      <trkpt lat="46.77655" lon="-0.9587">
        <ele>125</ele>
        <time>2021-09-21T10:43:57Z</time>
      </trkpt>
      <trkpt lat="46.77591" lon="-0.95782">
        <ele>127</ele>
        <time>2021-09-21T10:45:08Z</time>
      </trkpt>
      <trkpt lat="46.7757" lon="-0.95749">
        <ele>128</ele>
        <time>2021-09-21T10:45:32Z</time>
      </trkpt>
      <trkpt lat="46.77514" lon="-0.95761">
        <ele>130</ele>
        <time>2021-09-21T10:46:18Z</time>
      </trkpt>
      <trkpt lat="46.77502" lon="-0.9553">
        <ele>130</ele>
        <time>2021-09-21T10:48:25Z</time>
      </trkpt>
      <trkpt lat="46.77483" lon="-0.95394">
        <ele>129</ele>
        <time>2021-09-21T10:49:41Z</time>
      </trkpt>
      <trkpt lat="46.77454" lon="-0.95218">
        <ele>125</ele>
        <time>2021-09-21T10:51:20Z</time>
      </trkpt>
      <trkpt lat="46.77439" lon="-0.95105">
        <ele>122</ele>
        <time>2021-09-21T10:52:23Z</time>
      </trkpt>
      <trkpt lat="46.77396" lon="-0.9496">
        <ele>119</ele>
        <time>2021-09-21T10:53:50Z</time>
      </trkpt>
      <trkpt lat="46.77364" lon="-0.94696">
        <ele>108</ele>
        <time>2021-09-21T10:56:17Z</time>
      </trkpt>
      <trkpt lat="46.77379" lon="-0.94541">
        <ele>97</ele>
        <time>2021-09-21T10:57:43Z</time>
      </trkpt>
      <trkpt lat="46.77373" lon="-0.94495">
        <ele>96</ele>
        <time>2021-09-21T10:58:08Z</time>
      </trkpt>
      <trkpt lat="46.77408" lon="-0.94456">
        <ele>97</ele>
        <time>2021-09-21T10:58:44Z</time>
      </trkpt>
      <trkpt lat="46.77362" lon="-0.94407">
        <ele>101</ele>
        <time>2021-09-21T10:59:29Z</time>
      </trkpt>
      <trkpt lat="46.77323" lon="-0.94335">
        <ele>108</ele>
        <time>2021-09-21T11:00:20Z</time>
      </trkpt>
      <trkpt lat="46.773" lon="-0.94253">
        <ele>112</ele>
        <time>2021-09-21T11:01:08Z</time>
      </trkpt>
      <trkpt lat="46.77231" lon="-0.93931">
        <ele>116</ele>
        <time>2021-09-21T11:04:13Z</time>
      </trkpt>
      <trkpt lat="46.77431" lon="-0.93849">
        <ele>111</ele>
        <time>2021-09-21T11:06:59Z</time>
      </trkpt>
      <trkpt lat="46.77525" lon="-0.93816">
        <ele>112</ele>
        <time>2021-09-21T11:08:17Z</time>
      </trkpt>
      <trkpt lat="46.77639" lon="-0.9377">
        <ele>112</ele>
        <time>2021-09-21T11:09:52Z</time>
      </trkpt>
      <trkpt lat="46.77768" lon="-0.93737">
        <ele>113</ele>
        <time>2021-09-21T11:11:36Z</time>
      </trkpt>
      <trkpt lat="46.77996" lon="-0.9364">
        <ele>115</ele>
        <time>2021-09-21T11:14:47Z</time>
      </trkpt>
      <trkpt lat="46.77984" lon="-0.93511">
        <ele>117</ele>
        <time>2021-09-21T11:15:58Z</time>
      </trkpt>
      <trkpt lat="46.78007" lon="-0.93392">
        <ele>118</ele>
        <time>2021-09-21T11:17:06Z</time>
      </trkpt>
      <trkpt lat="46.78044" lon="-0.93292">
        <ele>116</ele>
        <time>2021-09-21T11:18:08Z</time>
      </trkpt>
      <trkpt lat="46.78225" lon="-0.93259">
        <ele>113</ele>
        <time>2021-09-21T11:20:34Z</time>
      </trkpt>
      <trkpt lat="46.78323" lon="-0.93253">
        <ele>112</ele>
        <time>2021-09-21T11:21:53Z</time>
      </trkpt>
      <trkpt lat="46.7841" lon="-0.93247">
        <ele>112</ele>
        <time>2021-09-21T11:23:02Z</time>
      </trkpt>
      <trkpt lat="46.78491" lon="-0.93207">
        <ele>112</ele>
        <time>2021-09-21T11:24:11Z</time>
      </trkpt>
      <trkpt lat="46.78699" lon="-0.9321">
        <ele>120</ele>
        <time>2021-09-21T11:26:57Z</time>
      </trkpt>
      <trkpt lat="46.78692" lon="-0.93131">
        <ele>120</ele>
        <time>2021-09-21T11:27:41Z</time>
      </trkpt>
      <trkpt lat="46.78746" lon="-0.93004">
        <ele>118</ele>
        <time>2021-09-21T11:29:03Z</time>
      </trkpt>
      <trkpt lat="46.78803" lon="-0.92946">
        <ele>122</ele>
        <time>2021-09-21T11:29:59Z</time>
      </trkpt>
      <trkpt lat="46.78875" lon="-0.9287">
        <ele>127</ele>
        <time>2021-09-21T11:31:10Z</time>
      </trkpt>
      <trkpt lat="46.78935" lon="-0.92878">
        <ele>131</ele>
        <time>2021-09-21T11:31:58Z</time>
      </trkpt>
      <trkpt lat="46.78906" lon="-0.9294">
        <ele>128</ele>
        <time>2021-09-21T11:32:39Z</time>
      </trkpt>
      <trkpt lat="46.78917" lon="-0.92995">
        <ele>128</ele>
        <time>2021-09-21T11:33:11Z</time>
      </trkpt>
      <trkpt lat="46.78933" lon="-0.93055">
        <ele>129</ele>
        <time>2021-09-21T11:33:46Z</time>
      </trkpt>
      <trkpt lat="46.78962" lon="-0.93095">
        <ele>131</ele>
        <time>2021-09-21T11:34:18Z</time>
      </trkpt>
      <trkpt lat="46.79089" lon="-0.93244">
        <ele>137</ele>
        <time>2021-09-21T11:36:28Z</time>
      </trkpt>
      <trkpt lat="46.79116" lon="-0.93298">
        <ele>135</ele>
        <time>2021-09-21T11:37:05Z</time>
      </trkpt>
      <trkpt lat="46.79131" lon="-0.93341">
        <ele>134</ele>
        <time>2021-09-21T11:37:31Z</time>
      </trkpt>
      <trkpt lat="46.79212" lon="-0.93235">
        <ele>136</ele>
        <time>2021-09-21T11:38:58Z</time>
      </trkpt>
      <trkpt lat="46.79285" lon="-0.93107">
        <ele>133</ele>
        <time>2021-09-21T11:40:30Z</time>
      </trkpt>
      <trkpt lat="46.79363" lon="-0.93025">
        <ele>132</ele>
        <time>2021-09-21T11:41:47Z</time>
      </trkpt>
      <trkpt lat="46.79438" lon="-0.92989">
        <ele>134</ele>
        <time>2021-09-21T11:42:50Z</time>
      </trkpt>
      <trkpt lat="46.79461" lon="-0.92943">
        <ele>134</ele>
        <time>2021-09-21T11:43:21Z</time>
      </trkpt>
      <trkpt lat="46.79472" lon="-0.92892">
        <ele>133</ele>
        <time>2021-09-21T11:43:50Z</time>
      </trkpt>
    </trkseg>
  </trk>
</gpx>